sensor_id;sensor_type;location;lat;lon;timestamp;P1;durP1;ratioP1;P2;durP2;ratioP2
17261;SDS011;9873;52.236;21.002;2024-01-15T00:01:32;12.30;;;7.27;;
17261;SDS011;9873;52.236;21.002;2024-01-15T00:11:37;13.40;;;7.73;;
17261;SDS011;9873;52.236;21.002;2024-01-15T00:21:46;13.07;;;8.17;;
17261;SDS011;9873;52.236;21.002;2024-01-15T00:31:51;14.83;;;8.50;;
17261;SDS011;9873;52.236;21.002;2024-01-15T00:42:04;15.77;;;9.70;;
17261;SDS011;9873;52.236;21.002;2024-01-15T00:52:08;13.40;;;7.47;;
17261;SDS011;9873;52.236;21.002;2024-01-15T01:02:13;13.47;;;7.27;;
17261;SDS011;9873;52.236;21.002;2024-01-15T01:12:18;16.83;;;8.07;;
17261;SDS011;9873;52.236;21.002;2024-01-15T01:22:21;15.80;;;9.00;;
17261;SDS011;9873;52.236;21.002;2024-01-15T01:32:23;13.53;;;8.13;;
17261;SDS011;9873;52.236;21.002;2024-01-15T01:42:29;17.20;;;9.57;;
17261;SDS011;9873;52.236;21.002;2024-01-15T01:52:34;17.83;;;10.13;;
17261;SDS011;9873;52.236;21.002;2024-01-15T02:02:38;15.63;;;7.50;;
17261;SDS011;9873;52.236;21.002;2024-01-15T02:12:45;18.37;;;11.10;;
17261;SDS011;9873;52.236;21.002;2024-01-15T02:22:53;18.97;;;10.83;;
17261;SDS011;9873;52.236;21.002;2024-01-15T02:32:58;21.47;;;11.17;;
17261;SDS011;9873;52.236;21.002;2024-01-15T02:43:07;18.00;;;9.67;;
17261;SDS011;9873;52.236;21.002;2024-01-15T02:53:11;13.07;;;8.43;;
17261;SDS011;9873;52.236;21.002;2024-01-15T03:03:16;18.50;;;8.73;;
17261;SDS011;9873;52.236;21.002;2024-01-15T03:13:20;20.03;;;10.00;;
17261;SDS011;9873;52.236;21.002;2024-01-15T03:23:23;24.80;;;12.30;;
17261;SDS011;9873;52.236;21.002;2024-01-15T03:33:25;21.77;;;10.70;;
17261;SDS011;9873;52.236;21.002;2024-01-15T03:43:31;21.53;;;9.37;;
17261;SDS011;9873;52.236;21.002;2024-01-15T03:53:33;18.13;;;10.50;;
17261;SDS011;9873;52.236;21.002;2024-01-15T04:03:38;19.07;;;9.77;;
17261;SDS011;9873;52.236;21.002;2024-01-15T04:13:45;22.40;;;12.10;;
17261;SDS011;9873;52.236;21.002;2024-01-15T04:23:49;18.20;;;10.30;;
17261;SDS011;9873;52.236;21.002;2024-01-15T04:33:54;18.47;;;10.43;;
17261;SDS011;9873;52.236;21.002;2024-01-15T04:44:00;17.73;;;9.83;;
17261;SDS011;9873;52.236;21.002;2024-01-15T04:54:06;8.37;;;5.70;;
17261;SDS011;9873;52.236;21.002;2024-01-15T05:04:13;13.67;;;7.63;;
17261;SDS011;9873;52.236;21.002;2024-01-15T05:14:19;9.07;;;5.23;;
17261;SDS011;9873;52.236;21.002;2024-01-15T05:24:25;13.83;;;8.77;;
17261;SDS011;9873;52.236;21.002;2024-01-15T05:34:32;13.87;;;8.67;;
17261;SDS011;9873;52.236;21.002;2024-01-15T05:44:38;14.60;;;8.10;;
17261;SDS011;9873;52.236;21.002;2024-01-15T05:54:43;12.17;;;7.30;;
17261;SDS011;9873;52.236;21.002;2024-01-15T06:04:46;14.90;;;9.10;;
17261;SDS011;9873;52.236;21.002;2024-01-15T06:14:51;12.60;;;7.80;;
17261;SDS011;9873;52.236;21.002;2024-01-15T06:25:08;12.20;;;7.60;;
17261;SDS011;9873;52.236;21.002;2024-01-15T06:35:11;15.48;;;10.93;;
17261;SDS011;9873;52.236;21.002;2024-01-15T06:45:21;12.80;;;7.93;;
17261;SDS011;9873;52.236;21.002;2024-01-15T06:55:28;13.10;;;7.33;;
17261;SDS011;9873;52.236;21.002;2024-01-15T07:15:48;14.23;;;7.97;;
17261;SDS011;9873;52.236;21.002;2024-01-15T07:25:50;16.37;;;8.73;;
17261;SDS011;9873;52.236;21.002;2024-01-15T07:35:53;17.47;;;9.07;;
17261;SDS011;9873;52.236;21.002;2024-01-15T07:45:58;11.90;;;7.77;;
17261;SDS011;9873;52.236;21.002;2024-01-15T07:56:10;11.63;;;7.23;;
17261;SDS011;9873;52.236;21.002;2024-01-15T08:06:17;13.77;;;7.43;;
17261;SDS011;9873;52.236;21.002;2024-01-15T08:16:28;13.20;;;8.10;;
17261;SDS011;9873;52.236;21.002;2024-01-15T08:26:30;13.80;;;8.23;;
17261;SDS011;9873;52.236;21.002;2024-01-15T08:36:34;10.60;;;7.40;;
17261;SDS011;9873;52.236;21.002;2024-01-15T08:46:44;9.30;;;6.43;;
17261;SDS011;9873;52.236;21.002;2024-01-15T08:56:52;14.07;;;8.17;;
17261;SDS011;9873;52.236;21.002;2024-01-15T09:06:57;9.27;;;6.03;;
17261;SDS011;9873;52.236;21.002;2024-01-15T09:17:03;15.40;;;8.60;;
17261;SDS011;9873;52.236;21.002;2024-01-15T09:27:09;13.30;;;7.93;;
17261;SDS011;9873;52.236;21.002;2024-01-15T09:37:14;8.03;;;4.80;;
17261;SDS011;9873;52.236;21.002;2024-01-15T09:47:39;9.87;;;5.60;;
17261;SDS011;9873;52.236;21.002;2024-01-15T09:57:50;9.80;;;5.33;;
17261;SDS011;9873;52.236;21.002;2024-01-15T10:07:55;8.77;;;5.00;;
17261;SDS011;9873;52.236;21.002;2024-01-15T10:18:05;3.03;;;2.67;;
17261;SDS011;9873;52.236;21.002;2024-01-15T10:28:08;8.83;;;5.00;;
17261;SDS011;9873;52.236;21.002;2024-01-15T10:38:13;10.40;;;5.20;;
17261;SDS011;9873;52.236;21.002;2024-01-15T10:48:17;8.00;;;4.63;;
17261;SDS011;9873;52.236;21.002;2024-01-15T10:58:22;8.43;;;5.20;;
17261;SDS011;9873;52.236;21.002;2024-01-15T11:08:25;8.00;;;4.57;;
17261;SDS011;9873;52.236;21.002;2024-01-15T11:18:37;6.77;;;4.37;;
17261;SDS011;9873;52.236;21.002;2024-01-15T11:28:48;6.43;;;3.40;;
17261;SDS011;9873;52.236;21.002;2024-01-15T11:38:53;9.13;;;5.30;;
17261;SDS011;9873;52.236;21.002;2024-01-15T11:48:58;10.97;;;5.23;;
17261;SDS011;9873;52.236;21.002;2024-01-15T11:59:05;10.03;;;5.43;;
17261;SDS011;9873;52.236;21.002;2024-01-15T12:09:09;9.93;;;5.20;;
17261;SDS011;9873;52.236;21.002;2024-01-15T12:19:13;10.73;;;6.37;;
17261;SDS011;9873;52.236;21.002;2024-01-15T12:29:20;9.13;;;5.60;;
17261;SDS011;9873;52.236;21.002;2024-01-15T12:39:24;8.03;;;4.40;;
17261;SDS011;9873;52.236;21.002;2024-01-15T12:49:36;10.80;;;6.07;;
17261;SDS011;9873;52.236;21.002;2024-01-15T12:59:43;10.17;;;6.33;;
17261;SDS011;9873;52.236;21.002;2024-01-15T13:09:51;8.53;;;4.93;;
17261;SDS011;9873;52.236;21.002;2024-01-15T13:19:55;11.80;;;6.60;;
17261;SDS011;9873;52.236;21.002;2024-01-15T13:30:01;14.03;;;6.97;;
17261;SDS011;9873;52.236;21.002;2024-01-15T13:40:06;13.13;;;7.63;;
17261;SDS011;9873;52.236;21.002;2024-01-15T13:50:11;15.53;;;7.60;;
17261;SDS011;9873;52.236;21.002;2024-01-15T14:00:13;4.67;;;3.60;;
17261;SDS011;9873;52.236;21.002;2024-01-15T14:10:22;14.00;;;7.27;;
17261;SDS011;9873;52.236;21.002;2024-01-15T14:20:34;7.07;;;4.80;;
17261;SDS011;9873;52.236;21.002;2024-01-15T14:30:38;12.93;;;5.70;;
17261;SDS011;9873;52.236;21.002;2024-01-15T14:40:41;12.13;;;6.43;;
17261;SDS011;9873;52.236;21.002;2024-01-15T14:50:46;14.80;;;5.63;;
17261;SDS011;9873;52.236;21.002;2024-01-15T15:00:48;12.13;;;5.97;;
17261;SDS011;9873;52.236;21.002;2024-01-15T15:10:58;11.03;;;5.43;;
17261;SDS011;9873;52.236;21.002;2024-01-15T15:21:05;9.27;;;2.67;;
17261;SDS011;9873;52.236;21.002;2024-01-15T15:31:14;9.17;;;5.23;;
17261;SDS011;9873;52.236;21.002;2024-01-15T15:41:20;8.33;;;5.40;;
17261;SDS011;9873;52.236;21.002;2024-01-15T15:51:22;7.00;;;4.30;;
17261;SDS011;9873;52.236;21.002;2024-01-15T16:01:24;8.47;;;4.43;;
17261;SDS011;9873;52.236;21.002;2024-01-15T16:11:29;8.77;;;5.47;;
17261;SDS011;9873;52.236;21.002;2024-01-15T16:21:31;11.17;;;5.70;;
17261;SDS011;9873;52.236;21.002;2024-01-15T16:31:56;8.60;;;4.00;;
17261;SDS011;9873;52.236;21.002;2024-01-15T16:42:00;11.00;;;5.77;;
17261;SDS011;9873;52.236;21.002;2024-01-15T16:52:03;13.27;;;5.47;;
17261;SDS011;9873;52.236;21.002;2024-01-15T17:02:09;10.47;;;5.13;;
17261;SDS011;9873;52.236;21.002;2024-01-15T17:12:13;6.73;;;2.87;;
17261;SDS011;9873;52.236;21.002;2024-01-15T17:22:23;3.83;;;2.90;;
17261;SDS011;9873;52.236;21.002;2024-01-15T17:32:28;3.67;;;2.87;;
17261;SDS011;9873;52.236;21.002;2024-01-15T17:42:33;3.67;;;2.87;;
17261;SDS011;9873;52.236;21.002;2024-01-15T17:52:37;6.53;;;4.00;;
17261;SDS011;9873;52.236;21.002;2024-01-15T18:02:40;8.63;;;5.90;;
17261;SDS011;9873;52.236;21.002;2024-01-15T18:12:46;14.03;;;7.40;;
17261;SDS011;9873;52.236;21.002;2024-01-15T18:22:51;11.20;;;6.33;;
17261;SDS011;9873;52.236;21.002;2024-01-15T18:32:55;18.10;;;9.43;;
17261;SDS011;9873;52.236;21.002;2024-01-15T18:43:01;17.57;;;8.07;;
17261;SDS011;9873;52.236;21.002;2024-01-15T18:53:10;13.50;;;8.83;;
17261;SDS011;9873;52.236;21.002;2024-01-15T19:03:14;12.67;;;6.87;;
17261;SDS011;9873;52.236;21.002;2024-01-15T19:13:17;5.27;;;3.40;;
17261;SDS011;9873;52.236;21.002;2024-01-15T19:23:23;7.60;;;4.47;;
17261;SDS011;9873;52.236;21.002;2024-01-15T19:33:30;6.07;;;2.50;;
17261;SDS011;9873;52.236;21.002;2024-01-15T19:43:36;7.63;;;3.20;;
17261;SDS011;9873;52.236;21.002;2024-01-15T19:53:47;2.97;;;2.20;;
17261;SDS011;9873;52.236;21.002;2024-01-15T20:03:52;2.80;;;1.50;;
17261;SDS011;9873;52.236;21.002;2024-01-15T20:13:55;3.93;;;2.63;;
17261;SDS011;9873;52.236;21.002;2024-01-15T20:23:58;4.83;;;2.37;;
17261;SDS011;9873;52.236;21.002;2024-01-15T20:34:05;3.40;;;2.30;;
17261;SDS011;9873;52.236;21.002;2024-01-15T20:44:08;3.17;;;1.87;;
17261;SDS011;9873;52.236;21.002;2024-01-15T20:54:13;3.90;;;1.57;;
17261;SDS011;9873;52.236;21.002;2024-01-15T21:04:17;2.37;;;1.83;;
17261;SDS011;9873;52.236;21.002;2024-01-15T21:14:24;4.10;;;2.10;;
17261;SDS011;9873;52.236;21.002;2024-01-15T21:24:27;3.07;;;2.17;;
17261;SDS011;9873;52.236;21.002;2024-01-15T21:34:33;6.77;;;2.37;;
17261;SDS011;9873;52.236;21.002;2024-01-15T21:44:36;4.93;;;2.50;;
17261;SDS011;9873;52.236;21.002;2024-01-15T21:54:41;4.73;;;2.10;;
17261;SDS011;9873;52.236;21.002;2024-01-15T22:04:45;2.90;;;2.30;;
17261;SDS011;9873;52.236;21.002;2024-01-15T22:14:50;2.73;;;2.23;;
17261;SDS011;9873;52.236;21.002;2024-01-15T22:24:52;3.80;;;3.20;;
17261;SDS011;9873;52.236;21.002;2024-01-15T22:34:54;3.37;;;2.07;;
17261;SDS011;9873;52.236;21.002;2024-01-15T22:44:59;2.40;;;1.70;;
17261;SDS011;9873;52.236;21.002;2024-01-15T22:55:02;3.73;;;1.60;;
17261;SDS011;9873;52.236;21.002;2024-01-15T23:05:10;1.53;;;1.33;;
17261;SDS011;9873;52.236;21.002;2024-01-15T23:15:16;1.50;;;1.37;;
17261;SDS011;9873;52.236;21.002;2024-01-15T23:25:26;1.83;;;1.03;;
17261;SDS011;9873;52.236;21.002;2024-01-15T23:35:31;1.27;;;1.10;;
17261;SDS011;9873;52.236;21.002;2024-01-15T23:45:34;1.40;;;1.30;;
17261;SDS011;9873;52.236;21.002;2024-01-15T23:55:38;2.20;;;1.60;;
